Time;durP1;ratioP1;P1;durP2;ratioP2;P2;SDS_P1;SDS_P2;PMS_P1;PMS_P2;Temp;Humidity;BMP_temperature;BMP_pressure;BME280_temperature;BME280_humidity;BME280_pressure;Samples;Min_cycle;Max_cycle;Signal;HPM_P1;HPM_P2
2021/12/20 00:02:11;;;;;;;11.27;6.10;;;;;;;8.05;74.33;101534.91;4970966;28;20302;-67
2021/12/20 00:04:40;;;;;;;11.00;5.93;;;;;;;8.15;73.85;101528.03;4971654;28;20215;-68
2021/12/20 00:07:07;;;;;;;8.33;4.80;;;;;;;7.99;74.83;101524.75;4970213;28;20225;-66
2021/12/20 00:09:35;;;;;;;8.80;5.03;;;;;;;8.04;74.28;101526.13;4970782;28;20240;-67
2021/12/20 00:12:05;;;;;;;10.07;5.63;;;;;;;8.03;74.03;101527.06;4971586;28;20222;-68
2021/12/20 00:14:33;;;;;;;8.27;4.60;;;;;;;8.22;73.21;101519.56;4966879;28;20220;-67
2021/12/20 00:17:00;;;;;;;9.83;5.23;;;;;;;8.03;73.94;101520.94;4971258;28;20223;-68
2021/12/20 00:19:30;;;;;;;7.97;4.20;;;;;;;8.00;74.15;101513.25;4970926;28;20767;-68
2021/12/20 00:21:57;;;;;;;7.97;4.43;;;;;;;8.07;73.97;101519.78;4964573;28;20213;-68
2021/12/20 00:24:28;;;;;;;7.63;4.67;;;;;;;8.25;73.34;101529.94;4970526;28;20269;-67
2021/12/20 00:26:55;;;;;;;9.80;5.53;;;;;;;8.32;73.10;101521.59;4973406;28;20293;-68
2021/12/20 00:29:24;;;;;;;7.47;4.57;;;;;;;8.30;72.87;101524.31;4969791;28;20225;-67
2021/12/20 00:31:52;;;;;;;8.03;4.50;;;;;;;8.30;73.15;101519.03;4969513;28;20675;-67
2021/12/20 00:34:20;;;;;;;9.97;5.70;;;;;;;8.19;73.40;101508.34;4969626;28;20221;-67
2021/12/20 00:36:56;;;;;;;9.37;4.57;;;;;;;8.28;73.06;101513.84;4970073;28;20257;-68
2021/12/20 00:42:09;;;;;;;9.70;5.27;;;;;;;8.20;73.30;101515.31;4970727;28;20220;-68
2021/12/20 00:44:39;;;;;;;9.73;4.80;;;;;;;8.14;73.82;101513.13;4968637;28;20218;-68
2021/12/20 00:47:07;;;;;;;7.10;4.20;;;;;;;7.96;74.02;101517.03;4964838;28;20210;-68
2021/12/20 00:49:35;;;;;;;9.33;4.77;;;;;;;8.14;73.77;101499.91;4969686;28;20742;-68
2021/12/20 00:52:03;;;;;;;6.23;3.73;;;;;;;8.03;73.95;101505.94;4969495;28;20215;-67
2021/12/20 00:54:31;;;;;;;7.93;4.50;;;;;;;8.05;74.10;101500.56;4969698;28;20233;-67
2021/12/20 00:56:58;;;;;;;6.93;4.07;;;;;;;8.06;73.93;101503.09;4971052;28;20313;-67
2021/12/20 00:59:26;;;;;;;7.17;4.20;;;;;;;8.12;74.10;101491.25;4964910;28;20322;-68
2021/12/20 01:01:55;;;;;;;11.20;4.33;;;;;;;8.29;73.23;101499.69;4965334;28;20231;-68
2021/12/20 01:04:23;;;;;;;6.90;4.13;;;;;;;8.14;73.71;101497.28;4969205;28;20643;-67
2021/12/20 01:06:51;;;;;;;7.90;4.50;;;;;;;7.96;74.07;101498.56;4971605;28;20312;-68
2021/12/20 01:09:19;;;;;;;8.87;4.60;;;;;;;8.03;74.26;101497.16;4969009;28;20643;-68
2021/12/20 01:11:51;;;;;;;8.30;4.30;;;;;;;8.02;74.04;101492.84;4965254;28;20791;-67
2021/12/20 01:14:23;;;;;;;7.37;4.27;;;;;;;8.10;74.35;101493.16;4969815;28;20249;-67
2021/12/20 01:16:54;;;;;;;6.80;4.00;;;;;;;8.12;73.36;101485.97;4968559;28;20300;-67
2021/12/20 01:19:25;;;;;;;8.70;4.30;;;;;;;8.03;73.73;101492.72;4969150;28;20298;-67
2021/12/20 01:21:52;;;;;;;7.63;4.43;;;;;;;8.34;72.94;101491.47;4968494;28;20243;-69
2021/12/20 01:24:20;;;;;;;6.67;3.80;;;;;;;8.34;72.55;101491.47;4968615;28;20771;-68
2021/12/20 01:26:48;;;;;;;6.93;4.03;;;;;;;8.36;72.90;101491.34;4969272;28;20302;-68
2021/12/20 01:29:16;;;;;;;8.33;4.63;;;;;;;8.60;72.24;101485.16;4971128;28;20210;-67
2021/12/20 01:31:44;;;;;;;6.13;3.47;;;;;;;8.32;72.45;101493.38;4962963;28;20217;-67
2021/12/20 01:34:12;;;;;;;9.10;5.23;;;;;;;8.50;72.62;101497.34;4969617;28;20232;-68
2021/12/20 01:36:41;;;;;;;8.73;4.63;;;;;;;8.47;72.18;101499.34;4968820;28;20258;-68
2021/12/20 01:39:09;;;;;;;8.13;4.80;;;;;;;8.46;72.24;101497.66;4969770;28;20576;-68
2021/12/20 01:41:40;;;;;;;7.80;4.83;;;;;;;8.57;72.12;101493.31;4965008;28;20238;-68
2021/12/20 01:44:08;;;;;;;9.67;5.13;;;;;;;8.60;72.25;101493.09;4970662;28;20244;-68
2021/12/20 01:46:36;;;;;;;10.30;5.20;;;;;;;8.63;72.30;101492.84;4968078;28;20218;-67
2021/12/20 01:49:08;;;;;;;10.03;5.53;;;;;;;8.71;71.88;101489.66;4970049;28;20260;-67
2021/12/20 01:51:48;;;;;;;9.80;5.70;;;;;;;8.49;72.03;101495.66;4965753;28;20590;-67
2021/12/20 01:54:19;;;;;;;10.00;5.47;;;;;;;7.97;74.56;101490.53;4966993;28;20213;-68
2021/12/20 01:56:47;;;;;;;10.63;5.40;;;;;;;8.00;74.82;101494.75;4971826;28;20320;-68
2021/12/20 01:59:14;;;;;;;11.13;5.77;;;;;;;8.26;74.25;101491.13;4968716;28;20291;-68
2021/12/20 02:01:44;;;;;;;12.83;6.90;;;;;;;8.39;73.62;101489.34;4970456;28;20309;-67
2021/12/20 02:04:13;;;;;;;11.10;6.37;;;;;;;8.42;73.17;101486.47;4968657;28;20256;-68
2021/12/20 02:06:46;;;;;;;13.57;7.73;;;;;;;8.40;72.89;101491.03;4970548;28;20527;-68
2021/12/20 02:09:15;;;;;;;11.97;6.87;;;;;;;8.34;73.67;101494.13;4969771;28;20281;-68
2021/12/20 02:11:47;;;;;;;15.13;6.90;;;;;;;8.49;73.43;101494.81;4968883;28;20248;-68
2021/12/20 02:14:16;;;;;;;13.13;6.73;;;;;;;8.62;72.93;101491.16;4969532;28;20215;-68
2021/12/20 02:16:45;;;;;;;13.33;6.60;;;;;;;8.63;72.20;101494.66;4971077;28;20237;-68
2021/12/20 02:19:15;;;;;;;9.60;5.43;;;;;;;8.48;72.62;101493.97;4967921;28;20234;-68
2021/12/20 02:21:45;;;;;;;10.70;5.73;;;;;;;8.42;73.01;101499.69;4970238;28;20265;-67
2021/12/20 02:24:14;;;;;;;10.10;5.37;;;;;;;8.54;72.50;101497.94;4967875;28;20265;-67
2021/12/20 02:26:43;;;;;;;11.87;5.83;;;;;;;8.48;72.47;101499.25;4968765;28;20253;-68
2021/12/20 02:29:11;;;;;;;9.83;5.43;;;;;;;8.24;73.04;101503.59;4967233;28;20309;-68
2021/12/20 02:40:02;;;;;;;17.60;9.80;;;;;;;7.99;76.00;101495.72;4954926;28;20221;-68
2021/12/20 02:42:36;;;;;;;16.57;8.93;;;;;;;8.14;75.54;101499.91;4969500;28;20350;-68
2021/12/20 02:45:11;;;;;;;18.17;10.13;;;;;;;8.12;75.32;101500.03;4970306;28;20315;-68
2021/12/20 02:47:40;;;;;;;20.10;10.20;;;;;;;8.01;75.82;101505.19;4969303;28;20868;-67
2021/12/20 02:50:09;;;;;;;21.60;11.60;;;;;;;7.53;77.53;101499.69;4968201;28;20210;-68
2021/12/20 02:52:38;;;;;;;21.67;11.30;;;;;;;7.90;76.30;101494.56;4968454;28;20218;-67
2021/12/20 02:55:08;;;;;;;21.20;11.17;;;;;;;7.53;77.04;101493.56;4970098;28;20597;-68
2021/12/20 02:57:37;;;;;;;20.77;10.60;;;;;;;7.44;78.25;101500.31;4967471;28;20228;-67
2021/12/20 03:00:07;;;;;;;25.93;11.63;;;;;;;7.91;76.87;101499.72;4969356;28;20317;-68
2021/12/20 03:02:35;;;;;;;21.20;11.93;;;;;;;7.76;76.57;101492.84;4960128;28;20251;-67
2021/12/20 03:05:05;;;;;;;20.70;10.73;;;;;;;7.90;76.06;101492.75;4969168;28;20218;-67
2021/12/20 03:07:41;;;;;;;20.57;12.20;;;;;;;7.78;76.19;101488.31;4975785;28;20291;-69
2021/12/20 03:10:13;;;;;;;23.80;11.07;;;;;;;8.00;75.39;101489.47;4970947;28;20300;-67
2021/12/20 03:12:41;;;;;;;23.27;11.57;;;;;;;7.76;76.32;101484.94;4971361;28;20212;-68
2021/12/20 03:15:13;;;;;;;22.87;12.80;;;;;;;7.81;76.45;101493.41;4973101;28;20225;-67
2021/12/20 03:17:41;;;;;;;22.70;11.33;;;;;;;7.92;75.66;101487.34;4972446;28;20743;-66
2021/12/20 03:20:10;;;;;;;24.90;12.13;;;;;;;7.71;76.33;101481.78;4972206;28;20690;-67
2021/12/20 03:22:39;;;;;;;23.23;12.70;;;;;;;7.92;75.52;101482.91;4969730;28;20230;-68
2021/12/20 03:25:07;;;;;;;20.90;10.97;;;;;;;7.97;75.17;101484.41;4970551;28;20307;-67
2021/12/20 03:27:37;;;;;;;25.03;12.60;;;;;;;7.86;75.33;101485.97;4974294;28;20292;-67
2021/12/20 03:30:07;;;;;;;26.23;12.33;;;;;;;7.83;74.98;101490.63;4973185;28;20249;-67
2021/12/20 03:32:35;;;;;;;24.27;12.50;;;;;;;7.67;76.02;101490.84;4974152;28;20630;-67
2021/12/20 03:35:03;;;;;;;25.20;13.70;;;;;;;7.67;76.40;101490.84;4972255;28;20816;-68
2021/12/20 03:37:31;;;;;;;24.47;13.43;;;;;;;7.56;76.37;101493.38;4971787;28;20241;-67
2021/12/20 03:39:59;;;;;;;22.63;11.67;;;;;;;7.70;76.48;101495.06;4972843;28;20781;-68
2021/12/20 03:42:28;;;;;;;25.90;12.70;;;;;;;7.91;75.66;101490.97;4972639;28;20328;-68
2021/12/20 03:44:57;;;;;;;25.53;13.10;;;;;;;7.99;75.19;101493.91;4974822;28;20291;-67
2021/12/20 03:47:25;;;;;;;26.40;12.73;;;;;;;7.90;74.96;101487.47;4970742;28;20220;-67
2021/12/20 03:49:53;;;;;;;22.30;12.77;;;;;;;7.53;77.06;101489.16;4973178;28;20237;-67
2021/12/20 03:52:20;;;;;;;27.80;13.10;;;;;;;7.80;75.51;101483.78;4971907;28;20233;-68
2021/12/20 03:54:48;;;;;;;26.30;12.50;;;;;;;7.69;76.05;101481.03;4972916;28;20311;-67
2021/12/20 03:57:16;;;;;;;26.53;13.27;;;;;;;7.87;75.46;101471.84;4972051;28;20218;-66
2021/12/20 03:59:47;;;;;;;26.03;13.37;;;;;;;7.66;75.97;101481.22;4971333;28;20788;-66
2021/12/20 04:02:19;;;;;;;25.10;13.77;;;;;;;7.38;77.49;101478.78;4970250;28;20312;-68
2021/12/20 04:04:47;;;;;;;24.67;12.20;;;;;;;7.26;77.50;101477.81;4972905;28;20209;-67
2021/12/20 04:07:15;;;;;;;25.03;13.13;;;;;;;7.34;78.14;101477.28;4972326;28;20216;-67
2021/12/20 04:09:42;;;;;;;23.87;12.23;;;;;;;7.26;78.42;101475.16;4972988;28;20746;-67
2021/12/20 04:12:11;;;;;;;23.90;12.83;;;;;;;7.18;78.59;101475.69;4971894;28;20832;-67
2021/12/20 04:14:39;;;;;;;25.20;13.17;;;;;;;7.33;78.13;101480.88;4969491;28;20310;-67
2021/12/20 04:17:07;;;;;;;26.73;13.17;;;;;;;7.55;77.32;101476.69;4970100;28;20280;-69
2021/12/20 04:19:36;;;;;;;23.37;11.97;;;;;;;7.32;77.93;101473.91;4974391;28;20269;-67
2021/12/20 04:22:04;;;;;;;29.60;13.67;;;;;;;7.19;78.00;101476.53;4968802;28;20222;-68
2021/12/20 04:24:32;;;;;;;25.40;13.60;;;;;;;7.02;78.67;101487.34;4971412;28;20242;-68
2021/12/20 04:26:59;;;;;;;25.33;12.60;;;;;;;6.80;79.49;101479.97;4970332;28;20232;-67
2021/12/20 04:29:28;;;;;;;24.87;12.93;;;;;;;6.79;80.17;101484.41;4971498;28;20223;-68
2021/12/20 04:31:56;;;;;;;25.20;13.03;;;;;;;6.94;79.35;101490.50;4971447;28;20543;-67
2021/12/20 04:34:24;;;;;;;29.37;12.97;;;;;;;7.32;78.47;101484.44;4969549;28;20308;-69
2021/12/20 04:36:53;;;;;;;30.90;13.67;;;;;;;7.59;76.72;101490.50;4971229;28;20224;-67
2021/12/20 04:39:25;;;;;;;26.60;13.53;;;;;;;7.71;75.89;101492.34;4970653;28;20263;-67
2021/12/20 04:41:53;;;;;;;24.70;12.67;;;;;;;7.68;76.27;101494.31;4970028;28;20215;-68
2021/12/20 04:44:21;;;;;;;25.53;12.90;;;;;;;7.48;76.68;101495.66;4970430;28;20235;-68
2021/12/20 04:46:49;;;;;;;26.63;12.67;;;;;;;7.19;78.09;101495.00;4973710;28;20236;-67
2021/12/20 04:49:17;;;;;;;30.73;14.20;;;;;;;7.54;77.08;101496.13;4970273;28;20212;-67
2021/12/20 04:51:45;;;;;;;24.93;12.50;;;;;;;7.51;76.88;101490.19;4969753;28;20244;-67
2021/12/20 04:54:19;;;;;;;27.70;13.00;;;;;;;7.67;75.82;101482.91;4969316;28;20219;-66
2021/12/20 04:56:47;;;;;;;25.00;13.80;;;;;;;7.49;76.71;101498.19;4971585;28;20337;-67
2021/12/20 04:59:15;;;;;;;23.47;12.67;;;;;;;7.65;75.94;101492.72;4963521;28;20236;-67
2021/12/20 05:01:42;;;;;;;30.60;14.07;;;;;;;7.42;77.14;101489.00;4971645;28;20310;-68
2021/12/20 05:04:12;;;;;;;24.10;12.20;;;;;;;7.60;76.25;101489.56;4967936;28;20217;-68
2021/12/20 05:06:40;;;;;;;23.20;12.70;;;;;;;7.68;76.23;101487.25;4969547;28;20544;-68
2021/12/20 05:09:09;;;;;;;26.03;13.43;;;;;;;7.54;76.50;101487.34;4969470;28;20215;-68
2021/12/20 05:11:46;;;;;;;25.93;12.97;;;;;;;7.37;77.50;101499.06;4970889;28;20243;-68
2021/12/20 05:14:13;;;;;;;29.30;14.00;;;;;;;7.29;77.37;101493.44;4970647;28;20222;-67
2021/12/20 05:16:41;;;;;;;25.67;13.47;;;;;;;7.56;77.22;101482.81;4969013;28;20209;-69
2021/12/20 05:19:09;;;;;;;26.67;12.83;;;;;;;7.61;76.23;101498.34;4968658;28;20284;-68
2021/12/20 05:21:37;;;;;;;27.17;13.00;;;;;;;7.66;76.40;101496.22;4969581;28;20250;-68
2021/12/20 05:24:05;;;;;;;26.10;13.00;;;;;;;7.54;76.36;101497.91;4968457;28;20233;-67
2021/12/20 05:26:33;;;;;;;26.67;13.07;;;;;;;7.43;76.53;101500.41;4966246;28;20717;-68
2021/12/20 05:29:06;;;;;;;23.53;12.93;;;;;;;7.36;77.16;101507.06;4968480;28;20364;-68
2021/12/20 05:31:34;;;;;;;27.13;13.43;;;;;;;7.27;78.13;101513.78;4969191;28;20319;-69
2021/12/20 05:34:02;;;;;;;32.00;14.73;;;;;;;7.13;78.25;101506.78;4970502;28;20635;-68
2021/12/20 05:36:30;;;;;;;28.90;13.47;;;;;;;7.01;78.60;101504.97;4970681;28;20222;-68
2021/12/20 05:38:58;;;;;;;25.30;13.90;;;;;;;7.48;76.86;101508.84;4968374;28;20284;-68
2021/12/20 05:41:26;;;;;;;25.53;13.83;;;;;;;7.17;78.11;101518.84;4968105;28;20223;-67
2021/12/20 05:43:54;;;;;;;26.27;13.40;;;;;;;7.31;77.41;101519.69;4967089;28;20416;-67
2021/12/20 05:46:23;;;;;;;26.07;13.90;;;;;;;7.39;77.47;101517.41;4968264;28;20558;-69
2021/12/20 05:48:51;;;;;;;28.53;15.17;;;;;;;7.35;76.99;101510.66;4971097;28;20291;-67
2021/12/20 05:51:18;;;;;;;30.40;14.30;;;;;;;7.49;76.49;101511.41;4967002;28;20302;-68
2021/12/20 05:53:46;;;;;;;26.53;13.90;;;;;;;7.45;76.12;101517.00;4966379;28;20241;-67
2021/12/20 05:56:14;;;;;;;26.23;13.63;;;;;;;7.58;75.84;101517.84;4968208;28;20863;-68
2021/12/20 05:58:42;;;;;;;24.37;13.13;;;;;;;7.66;75.35;101526.09;4968410;28;20320;-68
2021/12/20 06:01:10;;;;;;;26.70;14.00;;;;;;;7.69;75.07;101525.06;4968826;28;20255;-68
2021/12/20 06:03:40;;;;;;;25.90;13.27;;;;;;;7.55;75.23;101528.63;4966778;28;20307;-68
2021/12/20 06:06:08;;;;;;;28.23;13.83;;;;;;;7.67;75.11;101529.59;4967088;28;20264;-67
2021/12/20 06:08:36;;;;;;;27.27;14.20;;;;;;;7.68;74.89;101532.13;4968048;28;20231;-68
2021/12/20 06:11:04;;;;;;;29.87;14.80;;;;;;;7.20;76.75;101533.63;4967792;28;20216;-68
2021/12/20 06:13:32;;;;;;;27.47;14.27;;;;;;;7.40;76.27;101532.28;4969952;28;20239;-68
2021/12/20 06:16:00;;;;;;;27.63;14.07;;;;;;;7.43;75.93;101534.72;4969836;28;20220;-67
2021/12/20 06:18:28;;;;;;;30.63;14.17;;;;;;;7.50;76.11;101533.38;4968252;28;20302;-68
2021/12/20 06:20:57;;;;;;;30.17;14.47;;;;;;;7.59;75.61;101539.81;4968712;28;20701;-67
2021/12/20 06:23:25;;;;;;;30.70;14.83;;;;;;;7.45;75.83;101548.69;4967492;28;20213;-67
2021/12/20 06:25:52;;;;;;;29.37;13.20;;;;;;;7.49;75.53;101545.72;4969895;28;20334;-66
2021/12/20 06:28:20;;;;;;;29.43;13.60;;;;;;;7.49;75.75;101547.50;4967921;28;20228;-67
2021/12/20 06:30:48;;;;;;;28.60;13.20;;;;;;;7.40;75.72;101545.47;4967109;28;20232;-66
2021/12/20 06:33:16;;;;;;;24.20;13.43;;;;;;;7.25;76.83;101543.84;4962246;28;20213;-68
2021/12/20 06:35:45;;;;;;;28.83;13.77;;;;;;;7.28;76.85;101551.59;4968424;28;20215;-67
2021/12/20 06:38:19;;;;;;;27.47;13.97;;;;;;;7.35;76.28;101550.22;4972945;28;20244;-68
2021/12/20 06:40:47;;;;;;;29.90;14.97;;;;;;;7.12;77.59;101543.84;4968473;28;20311;-68
2021/12/20 06:43:15;;;;;;;26.30;13.93;;;;;;;7.26;77.40;101548.19;4964609;28;20696;-68
2021/12/20 06:45:43;;;;;;;32.10;15.37;;;;;;;7.20;77.77;101544.19;4969883;28;20252;-68
2021/12/20 06:48:11;;;;;;;28.80;13.27;;;;;;;7.35;77.04;101552.88;4967737;28;20224;-67
2021/12/20 06:50:38;;;;;;;27.50;13.33;;;;;;;7.40;77.12;101561.31;4973813;28;20224;-67
2021/12/20 06:53:07;;;;;;;29.40;14.50;;;;;;;7.35;77.21;101558.16;4972768;28;20236;-68
2021/12/20 06:55:37;;;;;;;30.63;14.10;;;;;;;7.39;76.82;101555.19;4973828;28;20273;-67
2021/12/20 06:58:05;;;;;;;30.80;14.83;;;;;;;7.39;77.04;101563.09;4975144;28;20297;-67
2021/12/20 07:00:33;;;;;;;26.03;13.93;;;;;;;7.42;76.89;101554.16;4973229;28;20232;-68
2021/12/20 07:03:01;;;;;;;28.17;14.30;;;;;;;7.39;77.12;101564.88;4974299;28;20265;-67
2021/12/20 07:05:30;;;;;;;31.13;14.50;;;;;;;7.16;77.90;101563.78;4971632;28;20586;-68
2021/12/20 07:07:57;;;;;;;34.70;14.40;;;;;;;7.47;76.81;101576.66;4974972;28;20220;-68
2021/12/20 07:10:25;;;;;;;27.93;14.23;;;;;;;7.37;76.81;101569.44;4973257;28;20205;-67
2021/12/20 07:12:55;;;;;;;27.67;14.73;;;;;;;7.40;77.20;101570.06;4973178;28;20646;-68
2021/12/20 07:15:25;;;;;;;29.10;14.77;;;;;;;7.52;76.38;101571.06;4976683;28;20209;-67
2021/12/20 07:17:53;;;;;;;28.20;14.80;;;;;;;7.39;77.06;101565.75;4973888;28;20212;-67
2021/12/20 07:20:20;;;;;;;35.60;16.43;;;;;;;7.44;76.83;101578.66;4974052;28;20249;-67
2021/12/20 07:22:48;;;;;;;29.67;14.40;;;;;;;7.49;76.53;101576.53;4972782;28;20210;-68
2021/12/20 07:25:16;;;;;;;30.45;17.65;;;;;;;7.58;76.11;101578.56;4973762;28;20464;-62
2021/12/20 07:27:44;;;;;;;29.50;15.13;;;;;;;7.56;76.09;101583.94;4972629;28;20225;-62
2021/12/20 07:30:14;;;;;;;30.07;14.47;;;;;;;7.55;76.17;101582.28;4973043;28;20600;-62
2021/12/20 07:32:41;;;;;;;30.07;13.87;;;;;;;7.52;76.00;101577.19;4970069;28;20260;-64
2021/12/20 07:35:10;;;;;;;28.67;14.30;;;;;;;7.49;76.21;101584.47;4974002;28;20219;-62
2021/12/20 07:37:38;;;;;;;28.27;14.07;;;;;;;7.56;75.75;101588.41;4976994;28;20683;-61
2021/12/20 07:40:08;;;;;;;25.97;13.20;;;;;;;7.66;75.48;101583.34;4974315;28;20233;-63
2021/12/20 07:42:36;;;;;;;25.93;12.90;;;;;;;7.63;75.42;101591.47;4973429;28;20826;-62
2021/12/20 07:45:04;;;;;;;28.50;13.77;;;;;;;7.62;75.46;101593.28;4973660;28;20709;-62
2021/12/20 07:47:48;;;;;;;28.70;13.97;;;;;;;7.51;76.09;101591.34;4964840;28;20236;-62
2021/12/20 07:50:16;;;;;;;32.57;14.90;;;;;;;7.36;76.60;101584.44;4974956;28;20207;-62
2021/12/20 07:52:44;;;;;;;26.47;13.63;;;;;;;7.55;76.08;101586.72;4975606;28;20304;-62
2021/12/20 07:55:12;;;;;;;29.37;15.13;;;;;;;7.54;75.80;101595.56;4972442;28;20280;-64
2021/12/20 07:57:40;;;;;;;28.27;13.23;;;;;;;7.66;75.48;101594.75;4971482;28;20226;-61
2021/12/20 08:00:10;;;;;;;30.97;14.30;;;;;;;7.60;75.59;101589.88;4970883;28;20231;-61
2021/12/20 08:02:37;;;;;;;30.47;14.13;;;;;;;7.57;75.69;101590.06;4970655;28;20217;-63
2021/12/20 08:05:08;;;;;;;29.53;14.03;;;;;;;7.56;75.87;101596.31;4974543;28;20241;-63
2021/12/20 08:07:36;;;;;;;25.77;14.23;;;;;;;7.69;75.52;101610.38;4969955;28;20297;-62
2021/12/20 08:10:04;;;;;;;24.80;13.30;;;;;;;7.74;75.16;101608.28;4967747;28;20654;-63
2021/12/20 08:12:32;;;;;;;29.23;14.57;;;;;;;7.73;74.78;101611.03;4968199;28;20252;-62
2021/12/20 08:15:00;;;;;;;32.00;15.27;;;;;;;7.67;75.32;101601.72;4970194;28;20738;-63
2021/12/20 08:17:28;;;;;;;28.93;13.57;;;;;;;7.78;74.91;101609.78;4969516;28;20312;-62
2021/12/20 08:19:56;;;;;;;28.83;13.53;;;;;;;7.86;74.56;101610.09;4969383;28;20217;-62
2021/12/20 08:22:26;;;;;;;29.93;12.90;;;;;;;7.88;74.51;101610.84;4966417;28;20245;-61
2021/12/20 08:24:53;;;;;;;33.50;14.33;;;;;;;7.77;74.43;101615.16;4967433;28;20847;-62
2021/12/20 08:27:21;;;;;;;30.07;13.43;;;;;;;7.95;74.00;101624.50;4966374;28;20309;-63
2021/12/20 08:29:49;;;;;;;26.27;13.37;;;;;;;8.00;74.07;101613.63;4970561;28;20301;-63
2021/12/20 08:32:19;;;;;;;32.00;13.53;;;;;;;8.12;73.37;101624.19;4969366;28;20209;-62
2021/12/20 08:34:52;;;;;;;32.93;14.00;;;;;;;8.12;73.08;101623.34;4969618;28;20213;-62
2021/12/20 08:37:20;;;;;;;28.17;11.83;;;;;;;8.19;72.77;101627.25;4969453;28;20300;-62
2021/12/20 08:39:49;;;;;;;24.37;12.03;;;;;;;8.12;72.07;101628.63;4970696;28;20220;-62
2021/12/20 08:42:17;;;;;;;25.80;11.07;;;;;;;8.15;71.82;101626.63;4970744;28;20205;-61
2021/12/20 08:44:45;;;;;;;23.97;9.23;;;;;;;7.70;71.20;101632.34;4970563;28;20261;-62
2021/12/20 08:47:12;;;;;;;19.03;7.37;;;;;;;7.27;71.22;101634.31;4970712;28;20656;-62
2021/12/20 08:49:40;;;;;;;21.63;8.87;;;;;;;7.50;71.75;101625.75;4976711;28;20212;-62
2021/12/20 08:52:08;;;;;;;26.57;7.90;;;;;;;7.78;70.46;101630.06;4976242;28;20987;-62
2021/12/20 08:54:36;;;;;;;16.77;7.30;;;;;;;7.83;70.30;101628.78;4975664;28;20205;-62
2021/12/20 08:57:07;;;;;;;19.23;7.27;;;;;;;7.89;70.42;101638.13;4966300;28;20221;-63
2021/12/20 08:59:36;;;;;;;21.80;7.20;;;;;;;7.81;70.19;101648.34;4966530;28;20214;-62
2021/12/20 09:02:07;;;;;;;16.47;6.80;;;;;;;7.81;69.83;101641.28;4966781;28;20238;-62
2021/12/20 09:04:35;;;;;;;24.70;7.10;;;;;;;7.80;68.98;101644.88;4970360;28;20210;-60
2021/12/20 09:07:05;;;;;;;19.37;6.60;;;;;;;7.89;68.90;101643.41;4971570;28;20655;-61
2021/12/20 09:09:37;;;;;;;17.20;5.90;;;;;;;7.80;69.61;101655.44;4971247;28;20276;-60
2021/12/20 09:12:08;;;;;;;18.33;5.80;;;;;;;7.80;67.87;101650.16;4976678;28;20222;-60
2021/12/20 09:14:36;;;;;;;19.93;6.13;;;;;;;7.93;67.91;101645.72;4971383;28;20676;-62
2021/12/20 09:17:04;;;;;;;23.27;5.90;;;;;;;7.91;67.79;101647.66;4976595;28;20207;-62
2021/12/20 09:19:34;;;;;;;15.67;4.73;;;;;;;7.86;67.02;101651.53;4969858;28;20219;-61
2021/12/20 09:22:02;;;;;;;18.77;4.53;;;;;;;7.57;67.32;101656.06;4966253;28;20317;-62
2021/12/20 09:24:30;;;;;;;16.17;3.83;;;;;;;7.88;67.11;101654.91;4973229;28;20277;-62
2021/12/20 09:26:58;;;;;;;20.00;5.30;;;;;;;7.88;66.34;101658.41;4968921;28;20236;-62
2021/12/20 09:29:27;;;;;;;17.40;4.10;;;;;;;7.79;66.49;101659.00;4968679;28;20847;-61
2021/12/20 09:31:55;;;;;;;11.40;3.50;;;;;;;7.95;66.34;101661.47;4968421;28;20217;-61
2021/12/20 09:34:23;;;;;;;16.63;4.43;;;;;;;7.88;65.94;101668.97;4966008;28;20270;-65
2021/12/20 09:36:53;;;;;;;15.23;3.67;;;;;;;7.86;65.58;101660.28;4967513;28;20209;-62
2021/12/20 09:39:21;;;;;;;18.43;4.63;;;;;;;7.89;65.64;101656.59;4968613;28;20666;-65
2021/12/20 09:42:03;;;;;;;20.20;5.27;;;;;;;7.97;65.74;101664.00;4968190;28;20236;-64
2021/12/20 09:44:33;;;;;;;17.60;3.20;;;;;;;7.81;66.33;101662.41;4968190;28;20245;-64
2021/12/20 09:47:03;;;;;;;12.90;4.00;;;;;;;8.03;65.51;101675.00;4968457;28;20218;-64
2021/12/20 09:49:32;;;;;;;16.00;4.13;;;;;;;8.07;65.84;101667.75;4967247;28;20227;-65
2021/12/20 09:51:59;;;;;;;17.33;3.77;;;;;;;8.04;65.41;101663.50;4970269;28;20305;-63
2021/12/20 09:54:29;;;;;;;15.33;4.00;;;;;;;8.20;65.64;101671.22;4966918;28;20215;-62
2021/12/20 09:56:59;;;;;;;17.63;4.20;;;;;;;7.97;65.04;101669.28;4968171;28;20268;-63
2021/12/20 09:59:29;;;;;;;17.30;5.40;;;;;;;7.93;65.24;101677.41;4967579;28;20276;-63
2021/12/20 10:01:59;;;;;;;17.33;4.20;;;;;;;8.26;64.87;101668.19;4969034;28;20594;-64
2021/12/20 10:04:27;;;;;;;19.47;4.07;;;;;;;9.73;60.00;101667.41;4961793;28;20215;-63
2021/12/20 10:06:58;;;;;;;17.50;3.77;;;;;;;11.14;56.54;101658.25;4968038;28;20297;-63
2021/12/20 10:09:30;;;;;;;17.87;3.17;;;;;;;11.98;53.26;101666.34;4968904;28;20219;-63
2021/12/20 10:12:18;;;;;;;11.50;3.33;;;;;;;11.77;51.93;101664.63;4966004;28;20249;-64
2021/12/20 10:14:55;;;;;;;16.37;3.50;;;;;;;12.94;49.79;101655.41;4965917;28;20678;-64
2021/12/20 10:17:28;;;;;;;17.67;4.70;;;;;;;11.82;51.99;101651.81;4965819;28;20225;-62
2021/12/20 10:19:56;;;;;;;13.60;2.93;;;;;;;11.13;53.92;101656.56;4967081;28;20299;-63
2021/12/20 10:22:28;;;;;;;14.93;3.63;;;;;;;9.95;57.94;101656.88;4966033;28;20226;-64
2021/12/20 10:24:58;;;;;;;19.67;4.03;;;;;;;9.64;59.27;101660.13;4964402;28;20339;-63
2021/12/20 10:27:31;;;;;;;16.13;3.70;;;;;;;9.41;59.29;101654.72;4968628;28;20240;-62
2021/12/20 10:30:00;;;;;;;23.90;4.17;;;;;;;10.69;56.22;101646.81;4965973;28;20212;-64
2021/12/20 10:32:43;;;;;;;15.13;3.83;;;;;;;11.52;52.82;101645.34;4967524;28;20565;-64
2021/12/20 10:35:35;;;;;;;10.23;3.70;;;;;;;11.48;53.20;101643.94;4968063;28;20212;-64
2021/12/20 10:38:08;;;;;;;20.73;3.90;;;;;;;13.03;49.80;101637.75;4968262;28;20222;-63
2021/12/20 10:40:47;;;;;;;11.23;3.57;;;;;;;14.41;45.08;101629.59;4967253;28;20210;-63
2021/12/20 10:43:19;;;;;;;10.93;2.87;;;;;;;16.28;41.61;101629.75;4967388;28;20244;-64
2021/12/20 10:45:47;;;;;;;16.13;3.50;;;;;;;16.24;41.84;101623.88;4967816;28;20302;-62
2021/12/20 10:48:37;;;;;;;12.57;3.10;;;;;;;17.56;38.91;101634.00;4962332;28;20211;-63
2021/12/20 10:51:05;;;;;;;10.93;3.40;;;;;;;16.54;40.03;101636.78;4968828;28;20229;-65
2021/12/20 10:53:33;;;;;;;12.70;3.60;;;;;;;14.30;44.60;101639.41;4968123;28;20214;-63
2021/12/20 10:56:03;;;;;;;13.50;3.40;;;;;;;13.45;46.70;101625.16;4965577;28;20254;-63
2021/12/20 10:58:52;;;;;;;13.43;3.60;;;;;;;12.42;49.02;101635.13;4963097;28;20222;-63
2021/12/20 11:01:34;;;;;;;12.32;3.15;;;;;;;12.37;48.83;101638.19;4965515;28;20301;-65
2021/12/20 11:04:06;;;;;;;20.15;3.22;;;;;;;11.85;50.71;101632.94;4967725;28;20305;-65
2021/12/20 11:09:24;;;;;;;15.23;3.60;;;;;;;11.77;50.88;101632.75;4967174;28;20694;-64
2021/12/20 11:11:54;;;;;;;13.37;3.10;;;;;;;12.86;48.47;101628.59;4966726;28;20230;-62
2021/12/20 11:14:27;;;;;;;16.77;3.57;;;;;;;12.11;50.61;101625.44;4964474;28;20274;-61
2021/12/20 11:16:57;;;;;;;16.90;3.83;;;;;;;12.05;50.32;101624.97;4963063;28;20267;-63
2021/12/20 11:19:30;;;;;;;16.63;3.37;;;;;;;12.17;50.39;101619.59;4965460;28;20277;-65
2021/12/20 11:22:01;;;;;;;16.17;4.30;;;;;;;12.55;48.96;101624.28;4967411;28;20578;-65
2021/12/20 11:24:31;;;;;;;16.30;3.83;;;;;;;13.29;47.03;101620.34;4966547;28;20266;-65
2021/12/20 11:27:01;;;;;;;13.63;3.63;;;;;;;14.16;44.97;101621.16;4968704;28;20306;-64
2021/12/20 11:29:29;;;;;;;13.43;3.47;;;;;;;12.84;47.01;101619.09;4965967;28;20215;-65
2021/12/20 11:31:58;;;;;;;16.17;3.27;;;;;;;11.77;49.54;101622.13;4965993;28;20212;-66
2021/12/20 11:34:26;;;;;;;13.33;3.83;;;;;;;11.27;51.36;101625.25;4967191;28;20302;-64
2021/12/20 11:36:57;;;;;;;8.10;3.00;;;;;;;9.89;53.95;101628.19;4968433;28;20480;-64
2021/12/20 11:39:25;;;;;;;14.50;3.37;;;;;;;10.19;54.64;101619.78;4971429;28;20210;-65
2021/12/20 11:41:54;;;;;;;12.03;2.73;;;;;;;10.11;54.80;101625.59;4970876;28;20326;-64
2021/12/20 11:44:25;;;;;;;12.27;3.00;;;;;;;9.41;55.06;101625.59;4969001;28;20844;-65
2021/12/20 11:47:07;;;;;;;12.87;3.07;;;;;;;9.59;54.73;101622.53;4970343;28;21240;-64